• Join FlightAware (Why Join?)
  • Login
  • US Flag GB Flag 
01:28 EDT


 

Airport Tracker/Info


-or-


 

Live Flight TrackerFlight Track Log ✈ AWE3268 ✈ 06-May-2013 ✈ KCMH - KPHL

Flight Track Log - Related Links

Times and Time Zones

All times are in EDT time to prevent confusion due to time zone crossing. See the AWE3268 flight status page for this flight to view local times or setup timezone preferences in your user account.

Time Position Orientation Groundspeed Altitude Reporting Facility
EDT Latitude Longitude Course Direction KTS MPH feet Rate Location/Type
13:55 40.0334 -82.5331 83° East  Level FlightAware Approximate
13:56 40.0452 -82.4146 83° East  Level FlightAware Approximate
13:56 39.9992 -82.6147 83° East 241 277 9,900  Level Indianapolis Center
13:57 40.0608 -82.2969 79° East  Level FlightAware Approximate
13:57 40.0003 -82.5289 89° East 237 273 12,500  Level Indianapolis Center
13:58 40.0788 -82.1796 79° East  Level FlightAware Approximate
13:59 40.0953 -82.0549 81° East  Level FlightAware Approximate
13:59 40.0574 -82.3185 79° East  Level FlightAware Approximate
13:59 40.0072 -82.3194 79° East 301 346 16,200  Level Indianapolis Center
14:00 40.1109 -81.9299 81° East  Level FlightAware Approximate
14:00 40.0097 -82.2017 88° East 320 368 18,500  Level Indianapolis Center
14:01 40.1178 -81.8039 83° East  Level FlightAware Approximate
14:02 40.0367 -81.9586 82° East 341 392 21,100  Level Indianapolis Center
14:03 40.0603 -81.8122 78° East 352 405 23,200 1,920 Climbing Indianapolis Center
14:04 40.0794 -81.6922 78° East 356 410 25,100 1,560 Climbing Indianapolis Center
14:06 40.1231 -81.4278 78° East 372 428 28,100 1,440 Climbing Indianapolis Center
14:07 40.1450 -81.2942 78° East 376 433 29,700 1,320 Climbing Indianapolis Center
14:08 40.1661 -81.1594 78° East 375 432 30,900 600 Climbing Indianapolis Center
14:09 40.1917 -81.0019 78° East 377 434 31,000  Climbing Indianapolis Center
14:10 40.2083 -80.9092 77° East 373 429 31,000  Level Cleveland Center
14:12 40.2486 -80.6564 78° East 362 417 31,000  Level Cleveland Center
14:13 40.2653 -80.5286 80° East 356 410 31,000  Level Cleveland Center
14:15 40.2572 -80.3732 90° East  Level Estimated
14:16 40.2747 -80.1314 90° East 346 398 31,000  Level Cleveland Center
14:17 40.2844 -80.0006 84° East 351 404 31,000  Level Cleveland Center
14:18 40.2881 -79.8728 88° East 351 404 31,000  Level Cleveland Center
14:19 40.2997 -79.7419 83° East 351 404 31,000  Level Cleveland Center
14:20 40.3697 -79.6431 47° Northeast 336 387 31,000  Level Cleveland Center
14:21 40.4544 -79.5653 35° Northeast 343 395 31,000  Level Cleveland Center
14:22 40.5119 -79.4581 55° Northeast 350 403 31,000  Level Cleveland Center
14:23 40.5022 -79.3269 96° East 333 383 31,000  Level Cleveland Center
14:24 40.4839 -79.1908 100° East 338 389 31,000  Level Cleveland Center
14:26 40.4450 -78.9189 101° East 390 449 31,000  Level Cleveland Center
14:27 40.4281 -78.7747 99° East 390 449 31,000  Level Cleveland Center
14:28 40.4069 -78.6308 101° East 390 449 31,000 -900 Level Cleveland Center
14:30 40.4145 -78.4394 96° East  Level FlightAware Approximate
14:34 40.2967 -77.7925 97° East 377 434 25,000  Level New York Center
14:36 40.2681 -77.5286 98° East 371 427 23,000 -1,080 Descending New York Center
14:37 40.3470 -77.5978 95° East  Level FlightAware Approximate
14:37 40.2528 -77.3936 98° East 371 427 21,900  Level New York Center
14:38 40.3379 -77.4775 96° East  Level FlightAware Approximate
14:38 40.2397 -77.2917 99° East 371 427 21,000  Level New York Center
14:39 40.3278 -77.3575 97° East  Level FlightAware Approximate
14:39 40.2208 -77.1406 99° East 359 413 19,600  Level New York Center
14:40 40.2086 -77.0197 98° East 346 398 18,500 -1,020 Descending New York Center
14:41 40.1919 -76.8986 100° East 335 386 17,600 -1,140 Descending New York Center
14:43 40.1798 -76.6963 94° East  Level FlightAware Approximate
14:44 40.1517 -76.5419 94° East 325 374 14,100  Level New York Center
14:45 40.1381 -76.4322 99° East 316 364 12,800 -1,020 Descending New York Center
14:47 40.1167 -76.1833 96° East 309 356 11,000 -600 Descending Philadelphia TRACON
14:48 40.1058 -76.0983 99° East 311 358 11,000 -420 Level New York Center
14:49 40.0981 -75.9919 95° East 306 352 10,300 -960 Descending New York Center
14:50 40.0900 -75.8908 96° East 287 330 9,100 -1,140 Descending New York Center
14:51 40.0836 -75.7928 95° East 276 318 8,100 -420 Descending New York Center
14:53 40.0733 -75.5939 94° East 276 318 8,000 -240 Descending New York Center
14:55 40.0509 -75.4167 180° South  Level FlightAware Approximate
14:56 39.9872 -75.3983 180° South 203 234 6,900  Level New York Center
14:57 39.9306 -75.4081 187° South 200 230 6,000 -480 Descending New York Center
14:58 39.9153 -75.4803 255° West 167 192 6,000 -720 Level New York Center
14:59 39.8956 -75.5544 251° West 189 217 4,600 -780 Descending New York Center
15:01 39.8667 -75.7167 257° West 206 237 3,600 -420 Descending Philadelphia TRACON
15:03 39.8000 -75.7000 169° South 186 214 3,000 -180 Descending Philadelphia TRACON
15:05 39.8292 -75.5160 90° East  Level Estimated
15:05 39.8000 -75.5833 90° East 174 200 3,000  Level Philadelphia TRACON
15:07 39.8167 -75.4667 79° East 168 193 2,900 -540 Descending Philadelphia TRACON
15:10 39.8500 -75.3167 74° East 131 151 600 -840 Descending Philadelphia TRACON